sensor_id;sensor_type;location;lat;lon;timestamp;P1;durP1;ratioP1;P2;durP2;ratioP2
60430;SDS011;46285;45.122;20.726;2023-07-30T00:02:23;10.68;;;9.35;;
60430;SDS011;46285;45.122;20.726;2023-07-30T00:12:24;10.85;;;9.55;;
60430;SDS011;46285;45.122;20.726;2023-07-30T00:22:25;13.57;;;9.63;;
60430;SDS011;46285;45.122;20.726;2023-07-30T00:32:26;15.52;;;10.48;;
60430;SDS011;46285;45.122;20.726;2023-07-30T00:42:28;16.92;;;10.18;;
60430;SDS011;46285;45.122;20.726;2023-07-30T00:52:29;13.25;;;9.93;;
60430;SDS011;46285;45.122;20.726;2023-07-30T01:02:32;12.07;;;10.75;;
60430;SDS011;46285;45.122;20.726;2023-07-30T01:12:33;12.05;;;10.75;;
60430;SDS011;46285;45.122;20.726;2023-07-30T01:22:35;11.95;;;10.30;;
60430;SDS011;46285;45.122;20.726;2023-07-30T01:32:36;11.52;;;10.05;;
60430;SDS011;46285;45.122;20.726;2023-07-30T01:42:38;14.48;;;9.82;;
60430;SDS011;46285;45.122;20.726;2023-07-30T01:52:39;15.20;;;10.93;;
60430;SDS011;46285;45.122;20.726;2023-07-30T02:02:41;13.18;;;10.48;;
60430;SDS011;46285;45.122;20.726;2023-07-30T02:12:42;13.65;;;10.93;;
60430;SDS011;46285;45.122;20.726;2023-07-30T02:22:43;13.73;;;11.32;;
60430;SDS011;46285;45.122;20.726;2023-07-30T02:32:44;13.65;;;11.68;;
60430;SDS011;46285;45.122;20.726;2023-07-30T02:42:46;18.45;;;14.07;;
60430;SDS011;46285;45.122;20.726;2023-07-30T02:52:47;16.25;;;14.02;;
60430;SDS011;46285;45.122;20.726;2023-07-30T03:02:48;15.80;;;14.20;;
60430;SDS011;46285;45.122;20.726;2023-07-30T03:12:49;15.13;;;13.70;;
60430;SDS011;46285;45.122;20.726;2023-07-30T03:22:51;16.98;;;15.20;;
60430;SDS011;46285;45.122;20.726;2023-07-30T03:32:52;15.63;;;14.02;;
60430;SDS011;46285;45.122;20.726;2023-07-30T03:42:53;15.15;;;13.65;;
60430;SDS011;46285;45.122;20.726;2023-07-30T03:52:55;15.55;;;13.32;;
60430;SDS011;46285;45.122;20.726;2023-07-30T04:02:56;15.75;;;14.07;;
60430;SDS011;46285;45.122;20.726;2023-07-30T04:12:57;15.00;;;12.25;;
60430;SDS011;46285;45.122;20.726;2023-07-30T04:23:00;19.08;;;15.70;;
60430;SDS011;46285;45.122;20.726;2023-07-30T04:33:01;27.13;;;17.27;;
60430;SDS011;46285;45.122;20.726;2023-07-30T04:43:02;16.88;;;14.25;;
60430;SDS011;46285;45.122;20.726;2023-07-30T04:53:04;17.70;;;13.35;;
60430;SDS011;46285;45.122;20.726;2023-07-30T05:03:05;14.10;;;10.68;;
60430;SDS011;46285;45.122;20.726;2023-07-30T05:13:07;12.07;;;10.38;;
60430;SDS011;46285;45.122;20.726;2023-07-30T05:23:08;15.32;;;10.10;;
60430;SDS011;46285;45.122;20.726;2023-07-30T05:33:09;13.05;;;9.55;;
60430;SDS011;46285;45.122;20.726;2023-07-30T05:43:10;13.05;;;9.90;;
60430;SDS011;46285;45.122;20.726;2023-07-30T05:53:11;12.23;;;9.77;;
60430;SDS011;46285;45.122;20.726;2023-07-30T06:03:13;13.52;;;8.98;;
60430;SDS011;46285;45.122;20.726;2023-07-30T06:13:15;17.43;;;10.27;;
60430;SDS011;46285;45.122;20.726;2023-07-30T06:23:16;14.13;;;8.85;;
60430;SDS011;46285;45.122;20.726;2023-07-30T06:33:17;10.30;;;8.07;;
60430;SDS011;46285;45.122;20.726;2023-07-30T06:43:19;10.60;;;7.63;;
60430;SDS011;46285;45.122;20.726;2023-07-30T06:53:20;10.38;;;6.88;;
60430;SDS011;46285;45.122;20.726;2023-07-30T07:03:22;11.23;;;6.45;;
60430;SDS011;46285;45.122;20.726;2023-07-30T07:13:23;10.27;;;6.63;;
60430;SDS011;46285;45.122;20.726;2023-07-30T07:23:24;9.95;;;6.25;;
60430;SDS011;46285;45.122;20.726;2023-07-30T07:33:25;9.55;;;5.00;;
60430;SDS011;46285;45.122;20.726;2023-07-30T07:43:27;8.90;;;4.93;;
60430;SDS011;46285;45.122;20.726;2023-07-30T07:53:28;8.77;;;3.78;;
60430;SDS011;46285;45.122;20.726;2023-07-30T08:03:29;9.40;;;4.93;;
60430;SDS011;46285;45.122;20.726;2023-07-30T08:13:31;6.47;;;3.15;;
60430;SDS011;46285;45.122;20.726;2023-07-30T08:23:32;8.73;;;4.05;;
60430;SDS011;46285;45.122;20.726;2023-07-30T08:33:33;7.32;;;3.80;;
60430;SDS011;46285;45.122;20.726;2023-07-30T08:43:34;10.30;;;3.97;;
60430;SDS011;46285;45.122;20.726;2023-07-30T08:53:39;9.38;;;4.07;;
60430;SDS011;46285;45.122;20.726;2023-07-30T09:03:40;8.57;;;3.63;;
60430;SDS011;46285;45.122;20.726;2023-07-30T09:13:42;7.20;;;3.60;;
60430;SDS011;46285;45.122;20.726;2023-07-30T09:23:46;10.82;;;7.82;;
60430;SDS011;46285;45.122;20.726;2023-07-30T09:33:47;9.98;;;5.05;;
60430;SDS011;46285;45.122;20.726;2023-07-30T09:43:48;9.85;;;4.50;;
60430;SDS011;46285;45.122;20.726;2023-07-30T09:53:58;7.88;;;4.20;;
60430;SDS011;46285;45.122;20.726;2023-07-30T10:03:59;7.78;;;4.38;;
60430;SDS011;46285;45.122;20.726;2023-07-30T10:14:04;8.10;;;4.43;;
60430;SDS011;46285;45.122;20.726;2023-07-30T10:24:06;11.68;;;4.70;;
60430;SDS011;46285;45.122;20.726;2023-07-30T10:34:08;7.45;;;4.20;;
60430;SDS011;46285;45.122;20.726;2023-07-30T10:44:16;8.15;;;4.50;;
60430;SDS011;46285;45.122;20.726;2023-07-30T10:54:18;8.30;;;4.38;;
60430;SDS011;46285;45.122;20.726;2023-07-30T11:04:20;7.00;;;4.40;;
60430;SDS011;46285;45.122;20.726;2023-07-30T11:14:22;7.65;;;4.85;;
60430;SDS011;46285;45.122;20.726;2023-07-30T11:24:41;8.88;;;4.43;;
60430;SDS011;46285;45.122;20.726;2023-07-30T11:34:42;7.68;;;4.00;;
60430;SDS011;46285;45.122;20.726;2023-07-30T11:44:43;7.50;;;4.32;;
60430;SDS011;46285;45.122;20.726;2023-07-30T11:54:44;9.43;;;3.92;;
60430;SDS011;46285;45.122;20.726;2023-07-30T12:04:46;8.48;;;3.45;;
60430;SDS011;46285;45.122;20.726;2023-07-30T12:24:54;9.18;;;3.70;;
60430;SDS011;46285;45.122;20.726;2023-07-30T12:34:55;7.22;;;3.55;;
60430;SDS011;46285;45.122;20.726;2023-07-30T12:44:57;7.13;;;3.88;;
60430;SDS011;46285;45.122;20.726;2023-07-30T12:54:59;6.28;;;3.67;;
60430;SDS011;46285;45.122;20.726;2023-07-30T13:05:01;7.95;;;3.25;;
60430;SDS011;46285;45.122;20.726;2023-07-30T13:15:11;6.83;;;3.27;;
60430;SDS011;46285;45.122;20.726;2023-07-30T13:25:12;7.32;;;3.80;;
60430;SDS011;46285;45.122;20.726;2023-07-30T13:35:14;6.53;;;3.28;;
60430;SDS011;46285;45.122;20.726;2023-07-30T13:45:17;7.40;;;2.90;;
60430;SDS011;46285;45.122;20.726;2023-07-30T13:55:18;12.07;;;2.90;;
60430;SDS011;46285;45.122;20.726;2023-07-30T14:05:20;7.05;;;3.03;;
60430;SDS011;46285;45.122;20.726;2023-07-30T14:15:21;16.02;;;3.05;;
60430;SDS011;46285;45.122;20.726;2023-07-30T14:25:22;9.60;;;2.75;;
60430;SDS011;46285;45.122;20.726;2023-07-30T14:35:24;6.78;;;2.97;;
60430;SDS011;46285;45.122;20.726;2023-07-30T14:45:25;6.88;;;3.08;;
60430;SDS011;46285;45.122;20.726;2023-07-30T14:55:26;8.38;;;3.13;;
60430;SDS011;46285;45.122;20.726;2023-07-30T15:05:28;6.47;;;2.70;;
60430;SDS011;46285;45.122;20.726;2023-07-30T15:15:29;7.70;;;2.58;;
60430;SDS011;46285;45.122;20.726;2023-07-30T15:25:30;12.75;;;2.90;;
60430;SDS011;46285;45.122;20.726;2023-07-30T15:35:31;5.88;;;2.60;;
60430;SDS011;46285;45.122;20.726;2023-07-30T15:45:32;6.95;;;2.05;;
60430;SDS011;46285;45.122;20.726;2023-07-30T15:55:34;6.32;;;2.30;;
60430;SDS011;46285;45.122;20.726;2023-07-30T16:05:35;4.63;;;1.98;;
60430;SDS011;46285;45.122;20.726;2023-07-30T16:15:36;8.10;;;2.80;;
60430;SDS011;46285;45.122;20.726;2023-07-30T16:25:37;9.05;;;2.38;;
60430;SDS011;46285;45.122;20.726;2023-07-30T16:35:39;7.18;;;2.70;;
60430;SDS011;46285;45.122;20.726;2023-07-30T16:45:40;7.80;;;2.30;;
60430;SDS011;46285;45.122;20.726;2023-07-30T16:55:42;12.70;;;2.83;;
60430;SDS011;46285;45.122;20.726;2023-07-30T17:05:43;6.43;;;2.25;;
60430;SDS011;46285;45.122;20.726;2023-07-30T17:15:45;5.43;;;2.50;;
60430;SDS011;46285;45.122;20.726;2023-07-30T17:25:55;7.60;;;2.65;;
60430;SDS011;46285;45.122;20.726;2023-07-30T17:36:00;8.40;;;2.63;;
60430;SDS011;46285;45.122;20.726;2023-07-30T17:46:02;5.47;;;2.22;;
60430;SDS011;46285;45.122;20.726;2023-07-30T17:56:03;6.03;;;2.75;;
60430;SDS011;46285;45.122;20.726;2023-07-30T18:06:05;7.38;;;2.90;;
60430;SDS011;46285;45.122;20.726;2023-07-30T18:16:06;6.25;;;2.78;;
60430;SDS011;46285;45.122;20.726;2023-07-30T18:26:07;9.73;;;3.17;;
60430;SDS011;46285;45.122;20.726;2023-07-30T18:36:08;7.55;;;3.17;;
60430;SDS011;46285;45.122;20.726;2023-07-30T18:46:09;6.60;;;2.67;;
60430;SDS011;46285;45.122;20.726;2023-07-30T18:56:11;5.63;;;2.78;;
60430;SDS011;46285;45.122;20.726;2023-07-30T19:06:12;7.95;;;2.83;;
60430;SDS011;46285;45.122;20.726;2023-07-30T19:16:13;8.35;;;2.17;;
60430;SDS011;46285;45.122;20.726;2023-07-30T19:26:14;7.40;;;3.03;;
60430;SDS011;46285;45.122;20.726;2023-07-30T19:36:16;5.50;;;2.70;;
60430;SDS011;46285;45.122;20.726;2023-07-30T19:46:17;7.82;;;2.72;;
60430;SDS011;46285;45.122;20.726;2023-07-30T19:56:18;5.93;;;2.72;;
60430;SDS011;46285;45.122;20.726;2023-07-30T20:06:19;6.05;;;2.90;;
60430;SDS011;46285;45.122;20.726;2023-07-30T20:16:20;11.95;;;2.85;;
60430;SDS011;46285;45.122;20.726;2023-07-30T20:26:22;10.98;;;4.03;;
60430;SDS011;46285;45.122;20.726;2023-07-30T20:36:23;5.72;;;2.58;;
60430;SDS011;46285;45.122;20.726;2023-07-30T20:46:24;5.15;;;2.28;;
60430;SDS011;46285;45.122;20.726;2023-07-30T20:56:25;6.50;;;2.25;;
60430;SDS011;46285;45.122;20.726;2023-07-30T21:06:26;5.82;;;2.33;;
60430;SDS011;46285;45.122;20.726;2023-07-30T21:16:28;6.95;;;2.70;;
60430;SDS011;46285;45.122;20.726;2023-07-30T21:26:29;5.53;;;2.45;;
60430;SDS011;46285;45.122;20.726;2023-07-30T21:36:31;5.88;;;2.63;;
60430;SDS011;46285;45.122;20.726;2023-07-30T21:46:32;7.88;;;2.85;;
60430;SDS011;46285;45.122;20.726;2023-07-30T21:56:33;5.07;;;2.38;;
60430;SDS011;46285;45.122;20.726;2023-07-30T22:06:34;6.25;;;3.30;;
60430;SDS011;46285;45.122;20.726;2023-07-30T22:16:35;6.35;;;3.10;;
60430;SDS011;46285;45.122;20.726;2023-07-30T22:26:36;10.38;;;4.20;;
60430;SDS011;46285;45.122;20.726;2023-07-30T22:36:39;8.55;;;4.82;;
60430;SDS011;46285;45.122;20.726;2023-07-30T22:46:40;14.05;;;8.27;;
60430;SDS011;46285;45.122;20.726;2023-07-30T22:56:41;12.52;;;8.10;;
60430;SDS011;46285;45.122;20.726;2023-07-30T23:06:42;10.20;;;6.55;;
60430;SDS011;46285;45.122;20.726;2023-07-30T23:16:43;15.52;;;6.63;;
60430;SDS011;46285;45.122;20.726;2023-07-30T23:26:44;9.98;;;6.88;;
60430;SDS011;46285;45.122;20.726;2023-07-30T23:36:46;12.05;;;7.00;;
60430;SDS011;46285;45.122;20.726;2023-07-30T23:46:47;11.20;;;6.13;;
60430;SDS011;46285;45.122;20.726;2023-07-30T23:56:48;11.00;;;7.47;;
